Time;durP1;ratioP1;P1;durP2;ratioP2;P2;SDS_P1;SDS_P2;PMS_P1;PMS_P2;Temp;Humidity;BMP_temperature;BMP_pressure;BME280_temperature;BME280_humidity;BME280_pressure;Samples;Min_cycle;Max_cycle;Signal;HPM_P1;HPM_P2
2023/09/12 00:01:06;;;;;;;28.23;25.07;;;;;;;;;;5134419;28;20441;-63
2023/09/12 00:03:33;;;;;;;32.90;25.53;;;;;;;;;;5133919;28;20413;-63
2023/09/12 00:06:01;;;;;;;38.27;27.63;;;;;;;;;;5133897;28;20791;-63
2023/09/12 00:08:30;;;;;;;34.80;26.07;;;;;;;;;;5133666;28;20451;-63
2023/09/12 00:11:01;;;;;;;38.60;28.23;;;;;;;;;;5133632;28;20433;-63
2023/09/12 00:13:29;;;;;;;37.17;26.83;;;;;;;;;;5133423;28;20451;-63
2023/09/12 00:15:56;;;;;;;36.23;27.77;;;;;;;;;;5133289;28;21007;-63
2023/09/12 00:18:23;;;;;;;32.17;25.30;;;;;;;;;;5133685;28;20800;-63
2023/09/12 00:20:51;;;;;;;37.00;25.57;;;;;;;;;;5133526;28;20440;-63
2023/09/12 00:23:19;;;;;;;29.40;25.40;;;;;;;;;;5133886;27;20436;-63
2023/09/12 00:25:48;;;;;;;39.20;29.33;;;;;;;;;;5137046;27;20483;-63
2023/09/12 00:28:15;;;;;;;42.53;31.40;;;;;;;;;;5137610;27;20428;-62
2023/09/12 00:30:42;;;;;;;49.80;31.90;;;;;;;;;;5137479;27;20543;-63
2023/09/12 00:33:09;;;;;;;35.43;29.20;;;;;;;;;;5137403;27;20437;-63
2023/09/12 00:35:37;;;;;;;47.03;31.00;;;;;;;;;;5136937;27;20476;-63
2023/09/12 00:38:04;;;;;;;48.17;32.87;;;;;;;;;;5137714;27;20793;-63
2023/09/12 00:40:31;;;;;;;37.10;31.37;;;;;;;;;;5136987;27;20441;-63
2023/09/12 00:43:00;;;;;;;41.03;30.20;;;;;;;;;;5137502;27;20520;-63
2023/09/12 00:45:27;;;;;;;44.87;33.20;;;;;;;;;;5137244;27;20436;-62
2023/09/12 00:47:55;;;;;;;44.80;31.23;;;;;;;;;;5137240;27;20433;-63
2023/09/12 00:50:22;;;;;;;38.80;32.33;;;;;;;;;;5136728;27;20526;-62
2023/09/12 00:52:50;;;;;;;39.93;32.60;;;;;;;;;;5137087;27;20524;-62
2023/09/12 00:55:18;;;;;;;42.20;30.30;;;;;;;;;;5136622;27;20539;-63
2023/09/12 00:57:45;;;;;;;42.83;33.03;;;;;;;;;;5137116;27;20500;-62
2023/09/12 01:00:14;;;;;;;47.60;32.93;;;;;;;;;;5136565;27;20449;-63
2023/09/12 01:02:42;;;;;;;47.63;33.90;;;;;;;;;;5137130;27;20451;-62
2023/09/12 01:05:10;;;;;;;46.30;35.50;;;;;;;;;;5136521;27;20522;-62
2023/09/12 01:07:38;;;;;;;41.30;31.97;;;;;;;;;;5136516;27;20449;-62
2023/09/12 01:10:06;;;;;;;43.97;34.27;;;;;;;;;;5136605;27;20954;-62
2023/09/12 01:12:33;;;;;;;47.47;33.67;;;;;;;;;;5136334;27;20433;-62
2023/09/12 01:15:00;;;;;;;41.20;32.83;;;;;;;;;;5136343;27;20477;-62
2023/09/12 01:17:29;;;;;;;49.90;34.67;;;;;;;;;;5136568;27;20483;-62
2023/09/12 01:19:56;;;;;;;44.67;34.60;;;;;;;;;;5136165;27;20519;-62
2023/09/12 01:22:29;;;;;;;43.67;35.63;;;;;;;;;;5136517;27;20491;-63
2023/09/12 01:25:14;;;;;;;41.20;33.17;;;;;;;;;;5135974;27;20586;-63
2023/09/12 01:27:43;;;;;;;44.90;33.80;;;;;;;;;;5136530;27;20536;-62
2023/09/12 01:30:11;;;;;;;44.10;32.13;;;;;;;;;;5136361;27;20444;-62
2023/09/12 01:32:39;;;;;;;57.07;39.60;;;;;;;;;;5136033;27;20467;-62
2023/09/12 01:35:07;;;;;;;54.33;37.43;;;;;;;;;;5135748;27;20440;-63
2023/09/12 01:37:35;;;;;;;50.57;38.93;;;;;;;;;;5136244;27;20563;-62
2023/09/12 01:40:03;;;;;;;53.97;37.27;;;;;;;;;;5135826;27;20914;-63
2023/09/12 01:42:32;;;;;;;45.37;32.33;;;;;;;;;;5136184;27;20437;-63
2023/09/12 01:45:02;;;;;;;55.40;37.27;;;;;;;;;;5135947;27;20440;-63
2023/09/12 01:47:30;;;;;;;47.93;36.00;;;;;;;;;;5136659;27;20604;-63
2023/09/12 01:49:59;;;;;;;41.63;34.20;;;;;;;;;;5135865;27;20461;-64
2023/09/12 01:52:26;;;;;;;39.47;29.23;;;;;;;;;;5135623;27;20453;-63
2023/09/12 01:54:54;;;;;;;35.83;26.33;;;;;;;;;;5135850;27;20445;-63
2023/09/12 01:57:21;;;;;;;41.87;29.43;;;;;;;;;;5135708;27;20821;-62
2023/09/12 01:59:49;;;;;;;40.27;29.83;;;;;;;;;;5135522;27;20893;-63
2023/09/12 02:02:18;;;;;;;43.23;30.90;;;;;;;;;;5135503;27;20551;-63
2023/09/12 02:04:48;;;;;;;39.23;29.47;;;;;;;;;;5135897;27;20450;-63
2023/09/12 02:07:15;;;;;;;31.03;23.07;;;;;;;;;;5135610;27;20432;-63
2023/09/12 02:09:43;;;;;;;33.27;24.43;;;;;;;;;;5135542;27;20440;-63
2023/09/12 02:12:10;;;;;;;30.13;20.73;;;;;;;;;;5135140;27;20442;-63
2023/09/12 02:14:37;;;;;;;29.43;23.87;;;;;;;;;;5135895;27;20462;-63
2023/09/12 02:17:05;;;;;;;31.00;23.63;;;;;;;;;;5135325;27;20498;-63
2023/09/12 02:19:33;;;;;;;31.40;24.07;;;;;;;;;;5135136;27;20436;-63
2023/09/12 02:22:00;;;;;;;31.27;21.07;;;;;;;;;;5135292;27;20546;-63
2023/09/12 02:24:28;;;;;;;25.07;20.30;;;;;;;;;;5134988;27;20474;-63
2023/09/12 02:26:55;;;;;;;24.10;19.33;;;;;;;;;;5135504;27;20430;-63
2023/09/12 02:29:22;;;;;;;21.77;18.50;;;;;;;;;;5135242;27;20439;-63
2023/09/12 02:31:49;;;;;;;22.17;18.00;;;;;;;;;;5134977;27;20475;-63
2023/09/12 02:34:16;;;;;;;20.80;17.27;;;;;;;;;;5134716;27;20450;-63
2023/09/12 02:36:45;;;;;;;22.10;16.87;;;;;;;;;;5134584;27;20494;-63
2023/09/12 02:39:12;;;;;;;16.10;14.43;;;;;;;;;;5135077;27;20786;-63
2023/09/12 02:41:39;;;;;;;24.00;17.27;;;;;;;;;;5134914;27;20469;-63
2023/09/12 02:44:06;;;;;;;22.97;16.93;;;;;;;;;;5135220;27;20464;-63
2023/09/12 02:46:34;;;;;;;21.60;17.10;;;;;;;;;;5134066;27;20441;-63
2023/09/12 02:49:01;;;;;;;19.43;16.37;;;;;;;;;;5134847;27;20531;-63
2023/09/12 02:51:28;;;;;;;17.87;15.53;;;;;;;;;;5134729;27;20539;-63
2023/09/12 02:53:57;;;;;;;20.97;16.73;;;;;;;;;;5134887;27;20451;-63
2023/09/12 02:56:24;;;;;;;19.67;17.50;;;;;;;;;;5134843;27;20531;-61
2023/09/12 02:58:51;;;;;;;18.13;15.90;;;;;;;;;;5134379;27;20518;-63
2023/09/12 03:01:19;;;;;;;19.43;16.53;;;;;;;;;;5134229;27;20437;-63
2023/09/12 03:03:47;;;;;;;28.23;15.67;;;;;;;;;;5134129;27;20527;-60
2023/09/12 03:06:15;;;;;;;22.73;14.10;;;;;;;;;;5134008;27;20447;-61
2023/09/12 03:08:42;;;;;;;12.43;9.40;;;;;;;;;;5134651;27;20530;-61
2023/09/12 03:11:11;;;;;;;16.87;10.23;;;;;;;;;;5134106;27;20439;-61
2023/09/12 03:13:38;;;;;;;18.20;11.20;;;;;;;;;;5134177;27;20465;-61
2023/09/12 03:16:05;;;;;;;18.13;11.87;;;;;;;;;;5134309;27;20871;-61
2023/09/12 03:18:33;;;;;;;15.43;12.87;;;;;;;;;;5134279;27;20483;-61
2023/09/12 03:21:02;;;;;;;22.43;12.70;;;;;;;;;;5134172;27;20434;-63
2023/09/12 03:23:29;;;;;;;14.50;11.80;;;;;;;;;;5134120;27;20842;-62
2023/09/12 03:25:57;;;;;;;17.87;12.33;;;;;;;;;;5134370;27;20442;-61
2023/09/12 03:28:25;;;;;;;17.30;11.53;;;;;;;;;;5133950;27;21007;-62
2023/09/12 03:30:52;;;;;;;13.80;11.40;;;;;;;;;;5134258;27;20435;-62
2023/09/12 03:33:19;;;;;;;17.93;11.00;;;;;;;;;;5133844;27;20434;-62
2023/09/12 03:35:47;;;;;;;20.27;11.30;;;;;;;;;;5133850;27;20440;-62
2023/09/12 03:38:14;;;;;;;14.47;12.20;;;;;;;;;;5133709;28;20473;-62
2023/09/12 03:40:41;;;;;;;14.50;12.07;;;;;;;;;;5134243;28;20944;-62
2023/09/12 03:43:08;;;;;;;14.97;11.43;;;;;;;;;;5133926;28;20928;-62
2023/09/12 03:45:37;;;;;;;12.87;10.10;;;;;;;;;;5134151;28;20771;-62
2023/09/12 03:48:04;;;;;;;16.90;10.97;;;;;;;;;;5133712;28;20448;-63
2023/09/12 03:50:32;;;;;;;12.47;11.17;;;;;;;;;;5132569;28;20510;-63
2023/09/12 03:52:59;;;;;;;13.00;10.80;;;;;;;;;;5133875;28;20443;-63
2023/09/12 03:55:26;;;;;;;13.63;10.27;;;;;;;;;;5134234;28;20443;-63
2023/09/12 03:57:53;;;;;;;15.67;11.23;;;;;;;;;;5135243;27;20564;-62
2023/09/12 04:00:20;;;;;;;13.57;11.07;;;;;;;;;;5137938;27;20437;-63
2023/09/12 04:02:49;;;;;;;14.93;12.10;;;;;;;;;;5138005;27;20436;-63
2023/09/12 04:05:16;;;;;;;13.60;10.63;;;;;;;;;;5138014;27;20444;-63
2023/09/12 04:07:44;;;;;;;16.67;11.77;;;;;;;;;;5137865;27;20459;-63
2023/09/12 04:10:11;;;;;;;13.80;11.40;;;;;;;;;;5137938;27;20468;-63
2023/09/12 04:12:38;;;;;;;14.97;11.70;;;;;;;;;;5137881;27;20803;-63
2023/09/12 04:15:06;;;;;;;17.53;12.50;;;;;;;;;;5137847;27;20524;-63
2023/09/12 04:17:33;;;;;;;12.80;11.10;;;;;;;;;;5137355;27;20973;-63
2023/09/12 04:20:02;;;;;;;13.63;11.77;;;;;;;;;;5137607;27;20444;-63
2023/09/12 04:22:29;;;;;;;14.30;12.10;;;;;;;;;;5137094;27;20936;-63
2023/09/12 04:24:56;;;;;;;16.27;13.50;;;;;;;;;;5137415;27;20473;-63
2023/09/12 04:27:23;;;;;;;21.03;12.33;;;;;;;;;;5137191;27;20544;-63
2023/09/12 04:29:51;;;;;;;14.10;12.60;;;;;;;;;;5137565;27;20798;-63
2023/09/12 04:32:23;;;;;;;15.57;13.73;;;;;;;;;;5137503;27;20523;-63
2023/09/12 04:34:50;;;;;;;14.40;12.87;;;;;;;;;;5137648;27;20434;-63
2023/09/12 04:37:18;;;;;;;18.30;15.53;;;;;;;;;;5137296;27;20502;-63
2023/09/12 04:39:46;;;;;;;17.77;13.77;;;;;;;;;;5137401;27;20434;-62
2023/09/12 04:42:14;;;;;;;18.57;15.13;;;;;;;;;;5137028;27;20439;-63
2023/09/12 04:44:41;;;;;;;20.80;13.93;;;;;;;;;;5137486;27;20544;-63
2023/09/12 04:47:09;;;;;;;18.70;14.10;;;;;;;;;;5137655;27;20444;-63
2023/09/12 04:49:36;;;;;;;18.87;14.90;;;;;;;;;;5137199;27;20438;-63
2023/09/12 04:52:04;;;;;;;20.63;15.10;;;;;;;;;;5136154;27;20444;-65
2023/09/12 04:54:32;;;;;;;18.00;15.67;;;;;;;;;;5136550;27;20452;-68
2023/09/12 04:56:59;;;;;;;19.90;15.17;;;;;;;;;;5136992;27;20526;-63
2023/09/12 04:59:26;;;;;;;18.53;14.97;;;;;;;;;;5136490;27;20446;-63
2023/09/12 05:01:54;;;;;;;21.40;15.80;;;;;;;;;;5137076;27;20519;-64
2023/09/12 05:04:21;;;;;;;18.53;15.57;;;;;;;;;;5136998;27;20446;-63
2023/09/12 05:06:48;;;;;;;18.53;16.23;;;;;;;;;;5136861;27;20433;-62
2023/09/12 05:09:16;;;;;;;21.23;17.60;;;;;;;;;;5136039;27;20441;-63
2023/09/12 05:11:45;;;;;;;17.80;15.90;;;;;;;;;;5136675;27;20975;-63
2023/09/12 05:14:12;;;;;;;18.73;16.67;;;;;;;;;;5136571;27;20448;-63
2023/09/12 05:16:39;;;;;;;22.87;17.40;;;;;;;;;;5136975;27;20463;-63
2023/09/12 05:19:06;;;;;;;17.70;15.80;;;;;;;;;;5136195;27;20477;-63
2023/09/12 05:21:33;;;;;;;25.70;17.70;;;;;;;;;;5136652;27;20713;-63
2023/09/12 05:24:01;;;;;;;22.30;17.37;;;;;;;;;;5136272;27;20469;-63
2023/09/12 05:26:28;;;;;;;20.83;18.30;;;;;;;;;;5136698;27;20429;-63
2023/09/12 05:28:56;;;;;;;21.43;18.30;;;;;;;;;;5136168;27;20535;-64
2023/09/12 05:31:24;;;;;;;21.43;18.90;;;;;;;;;;5136833;27;20440;-64
2023/09/12 05:33:51;;;;;;;23.33;18.10;;;;;;;;;;5136686;27;20435;-63
2023/09/12 05:36:18;;;;;;;26.20;19.03;;;;;;;;;;5136381;27;20453;-64
2023/09/12 05:38:45;;;;;;;24.80;19.20;;;;;;;;;;5136580;27;20478;-64
2023/09/12 05:41:12;;;;;;;27.17;20.37;;;;;;;;;;5136936;27;20462;-64
2023/09/12 05:43:39;;;;;;;24.40;19.53;;;;;;;;;;5136247;27;20440;-64
2023/09/12 05:46:08;;;;;;;25.07;20.87;;;;;;;;;;5135946;27;20444;-64
2023/09/12 05:48:35;;;;;;;22.87;19.40;;;;;;;;;;5136301;27;20509;-64
2023/09/12 05:51:03;;;;;;;29.73;20.13;;;;;;;;;;5136145;27;20531;-63
2023/09/12 05:53:31;;;;;;;24.50;19.77;;;;;;;;;;5135820;27;20456;-64
2023/09/12 05:55:58;;;;;;;26.20;19.93;;;;;;;;;;5135755;27;20441;-64
2023/09/12 05:58:25;;;;;;;22.40;18.93;;;;;;;;;;5136445;27;20478;-64
2023/09/12 06:00:52;;;;;;;26.73;19.63;;;;;;;;;;5135913;27;20519;-63
2023/09/12 06:03:21;;;;;;;32.07;19.67;;;;;;;;;;5135441;27;20516;-64
2023/09/12 06:05:48;;;;;;;21.37;18.37;;;;;;;;;;5135541;27;20925;-63
2023/09/12 06:08:15;;;;;;;22.87;18.17;;;;;;;;;;5135534;27;20451;-64
2023/09/12 06:10:42;;;;;;;23.50;18.07;;;;;;;;;;5135766;27;20442;-64
2023/09/12 06:13:10;;;;;;;22.53;18.60;;;;;;;;;;5135415;27;20443;-64
2023/09/12 06:15:37;;;;;;;27.30;21.83;;;;;;;;;;5135310;27;20441;-64
2023/09/12 06:18:04;;;;;;;22.80;19.67;;;;;;;;;;5135306;27;21046;-64
2023/09/12 06:20:33;;;;;;;24.90;19.20;;;;;;;;;;5135551;27;20430;-64
2023/09/12 06:23:00;;;;;;;25.20;19.50;;;;;;;;;;5135217;27;20934;-64
2023/09/12 06:25:28;;;;;;;25.70;19.10;;;;;;;;;;5135092;27;20838;-63
2023/09/12 06:27:56;;;;;;;24.80;19.60;;;;;;;;;;5135881;27;20445;-63
2023/09/12 06:30:23;;;;;;;33.47;21.90;;;;;;;;;;5135160;27;20522;-63
2023/09/12 06:32:50;;;;;;;25.07;19.77;;;;;;;;;;5135043;27;20542;-63
2023/09/12 06:35:17;;;;;;;29.60;20.70;;;;;;;;;;5134903;27;20513;-63
2023/09/12 06:37:47;;;;;;;34.83;23.50;;;;;;;;;;5134959;27;20482;-63
2023/09/12 06:40:14;;;;;;;37.00;24.43;;;;;;;;;;5135196;27;20514;-63
2023/09/12 06:42:41;;;;;;;38.13;24.53;;;;;;;;;;5134915;27;20441;-63
2023/09/12 06:45:09;;;;;;;35.80;26.67;;;;;;;;;;5134760;27;20957;-63
2023/09/12 06:47:36;;;;;;;40.87;26.57;;;;;;;;;;5134698;27;20535;-63
2023/09/12 06:50:03;;;;;;;44.83;27.73;;;;;;;;;;5134565;27;20433;-63
2023/09/12 06:52:30;;;;;;;43.63;26.90;;;;;;;;;;5135373;27;20847;-63
2023/09/12 06:54:59;;;;;;;44.93;27.20;;;;;;;;;;5135156;27;20544;-63
2023/09/12 06:57:26;;;;;;;41.37;27.17;;;;;;;;;;5134598;27;21000;-63
2023/09/12 06:59:53;;;;;;;36.80;26.50;;;;;;;;;;5134807;27;20849;-64
2023/09/12 07:02:21;;;;;;;38.43;25.47;;;;;;;;;;5134668;27;20441;-63
2023/09/12 07:04:48;;;;;;;37.00;24.83;;;;;;;;;;5134266;27;20442;-63
2023/09/12 07:07:16;;;;;;;37.83;25.60;;;;;;;;;;5134681;27;20448;-63
2023/09/12 07:09:43;;;;;;;37.43;26.17;;;;;;;;;;5134413;27;20444;-64
2023/09/12 07:12:11;;;;;;;38.13;28.30;;;;;;;;;;5135128;27;20439;-63
2023/09/12 07:14:38;;;;;;;37.90;26.77;;;;;;;;;;5134521;27;20437;-64
2023/09/12 07:17:07;;;;;;;34.80;23.93;;;;;;;;;;5134544;27;20520;-63
2023/09/12 07:19:35;;;;;;;30.37;23.63;;;;;;;;;;5134482;27;20479;-63
2023/09/12 07:22:02;;;;;;;28.80;23.90;;;;;;;;;;5134193;27;20924;-63
2023/09/12 07:24:29;;;;;;;32.83;25.23;;;;;;;;;;5133906;27;20981;-63
2023/09/12 07:26:58;;;;;;;36.47;26.43;;;;;;;;;;5134053;27;20926;-63
2023/09/12 07:29:27;;;;;;;37.57;27.20;;;;;;;;;;5133925;27;20544;-64
2023/09/12 07:31:54;;;;;;;37.90;28.27;;;;;;;;;;5134024;27;20540;-63
2023/09/12 07:34:23;;;;;;;43.77;30.23;;;;;;;;;;5133725;27;20436;-63
2023/09/12 07:36:51;;;;;;;47.70;30.63;;;;;;;;;;5133886;27;20479;-63
2023/09/12 07:39:18;;;;;;;42.83;30.50;;;;;;;;;;5133687;27;20480;-63
2023/09/12 07:41:45;;;;;;;43.10;28.60;;;;;;;;;;5133496;28;20441;-63
2023/09/12 07:44:15;;;;;;;47.50;29.57;;;;;;;;;;5133987;28;20774;-63
2023/09/12 07:46:43;;;;;;;43.57;30.77;;;;;;;;;;5133812;28;20463;-63
2023/09/12 07:49:11;;;;;;;44.03;29.13;;;;;;;;;;5133269;28;20453;-63
2023/09/12 07:51:38;;;;;;;40.83;28.27;;;;;;;;;;5133302;28;20536;-63
2023/09/12 07:54:05;;;;;;;38.57;29.37;;;;;;;;;;5133760;28;20439;-63
2023/09/12 07:56:32;;;;;;;42.93;29.13;;;;;;;;;;5133862;28;20469;-63
2023/09/12 07:59:00;;;;;;;37.67;28.60;;;;;;;;;;5133864;28;20475;-63
2023/09/12 08:01:28;;;;;;;55.40;31.10;;;;;;;;;;5133473;28;20552;-63
2023/09/12 08:03:56;;;;;;;41.53;28.47;;;;;;;;;;5133949;28;20529;-63
2023/09/12 08:06:25;;;;;;;46.87;29.93;;;;;;;;;;5133420;28;20433;-64
2023/09/12 08:08:52;;;;;;;44.47;29.87;;;;;;;;;;5133422;28;20928;-62
2023/09/12 08:11:19;;;;;;;42.93;28.00;;;;;;;;;;5133921;28;20795;-62
2023/09/12 08:13:47;;;;;;;77.00;51.77;;;;;;;;;;5133760;28;20518;-63
2023/09/12 08:16:15;;;;;;;43.50;30.47;;;;;;;;;;5133256;28;20795;-63
2023/09/12 08:18:42;;;;;;;44.43;30.10;;;;;;;;;;5133441;28;20472;-63
2023/09/12 08:21:11;;;;;;;45.50;30.40;;;;;;;;;;5132942;28;20528;-63
2023/09/12 08:23:38;;;;;;;48.77;30.23;;;;;;;;;;5133117;28;20450;-63
2023/09/12 08:26:05;;;;;;;47.60;29.80;;;;;;;;;;5133115;28;20884;-63
2023/09/12 08:28:33;;;;;;;46.00;28.47;;;;;;;;;;5133453;28;20770;-63
2023/09/12 08:31:00;;;;;;;38.30;25.90;;;;;;;;;;5133823;28;20447;-63
2023/09/12 08:33:27;;;;;;;45.90;30.60;;;;;;;;;;5133491;28;20435;-63
2023/09/12 08:35:54;;;;;;;37.97;27.67;;;;;;;;;;5133264;28;20436;-63
2023/09/12 08:38:23;;;;;;;43.50;27.70;;;;;;;;;;5133607;28;20478;-63
2023/09/12 08:40:50;;;;;;;43.97;28.73;;;;;;;;;;5133268;28;20439;-63
2023/09/12 08:43:18;;;;;;;36.20;25.23;;;;;;;;;;5133315;27;20441;-63
2023/09/12 08:45:46;;;;;;;41.80;27.30;;;;;;;;;;5136190;27;20901;-63
2023/09/12 08:48:13;;;;;;;38.40;25.60;;;;;;;;;;5136791;27;20957;-63
2023/09/12 08:50:41;;;;;;;42.10;28.57;;;;;;;;;;5136652;27;20432;-63
2023/09/12 08:53:08;;;;;;;46.57;27.97;;;;;;;;;;5136988;27;20429;-63
2023/09/12 08:55:37;;;;;;;40.27;26.17;;;;;;;;;;5136917;27;20527;-63
2023/09/12 08:58:04;;;;;;;38.40;25.93;;;;;;;;;;5136617;27;20437;-63
2023/09/12 09:00:32;;;;;;;37.33;26.90;;;;;;;;;;5136363;27;20437;-63
2023/09/12 09:02:59;;;;;;;37.80;26.80;;;;;;;;;;5137135;27;20515;-63
2023/09/12 09:05:28;;;;;;;29.70;23.57;;;;;;;;;;5136708;27;20946;-63
2023/09/12 09:07:56;;;;;;;39.77;27.00;;;;;;;;;;5136474;27;20444;-63
2023/09/12 09:10:24;;;;;;;41.37;27.10;;;;;;;;;;5136572;27;20440;-63
2023/09/12 09:12:53;;;;;;;38.90;27.50;;;;;;;;;;5136477;27;20531;-63
2023/09/12 09:15:23;;;;;;;35.20;26.33;;;;;;;;;;5136538;27;20460;-63
2023/09/12 09:17:51;;;;;;;40.07;28.07;;;;;;;;;;5136385;27;20440;-63
2023/09/12 09:20:23;;;;;;;34.73;27.70;;;;;;;;;;5135998;27;20989;-63
2023/09/12 09:22:57;;;;;;;34.20;26.43;;;;;;;;;;5136335;27;20465;-63
2023/09/12 09:25:24;;;;;;;40.23;27.50;;;;;;;;;;5136420;27;20476;-63
2023/09/12 09:27:53;;;;;;;33.27;25.77;;;;;;;;;;5135798;27;20468;-63
2023/09/12 09:30:21;;;;;;;42.63;32.37;;;;;;;;;;5136149;27;20430;-63
2023/09/12 09:32:48;;;;;;;43.37;30.23;;;;;;;;;;5135779;27;20875;-63
2023/09/12 09:35:16;;;;;;;50.20;31.13;;;;;;;;;;5136128;27;20472;-63
2023/09/12 09:37:43;;;;;;;36.37;29.50;;;;;;;;;;5135826;27;20803;-63
2023/09/12 09:40:11;;;;;;;34.43;27.73;;;;;;;;;;5135797;27;20470;-64
2023/09/12 09:42:38;;;;;;;34.40;28.77;;;;;;;;;;5135674;27;20942;-63
2023/09/12 09:45:08;;;;;;;29.93;26.33;;;;;;;;;;5135919;27;20441;-63
2023/09/12 09:47:35;;;;;;;32.03;24.47;;;;;;;;;;5135399;27;20445;-63
2023/09/12 09:50:02;;;;;;;28.07;24.63;;;;;;;;;;5135800;27;20794;-63
2023/09/12 09:52:29;;;;;;;27.83;22.43;;;;;;;;;;5135692;27;20790;-63
2023/09/12 09:54:56;;;;;;;27.53;21.57;;;;;;;;;;5135740;27;20437;-63
2023/09/12 09:57:27;;;;;;;26.93;22.00;;;;;;;;;;5135529;27;20425;-63
2023/09/12 09:59:55;;;;;;;28.93;25.87;;;;;;;;;;5135388;27;20561;-63
2023/09/12 10:02:26;;;;;;;23.47;21.07;;;;;;;;;;5135206;27;20540;-63
2023/09/12 10:04:55;;;;;;;24.37;20.40;;;;;;;;;;5135313;27;20528;-63
2023/09/12 10:07:23;;;;;;;20.37;18.37;;;;;;;;;;5135074;27;20440;-63
2023/09/12 10:09:50;;;;;;;20.63;18.43;;;;;;;;;;5135155;27;20524;-63
2023/09/12 10:12:18;;;;;;;22.40;19.50;;;;;;;;;;5135683;27;20492;-63
2023/09/12 10:14:45;;;;;;;22.70;20.23;;;;;;;;;;5135342;27;20430;-63
2023/09/12 10:17:14;;;;;;;21.67;19.47;;;;;;;;;;5135276;27;20509;-63
2023/09/12 10:19:52;;;;;;;26.17;20.63;;;;;;;;;;5135197;27;20479;-63
2023/09/12 10:22:22;;;;;;;22.83;20.43;;;;;;;;;;5134881;27;20903;-63
2023/09/12 10:24:50;;;;;;;23.33;21.13;;;;;;;;;;5135105;27;20470;-63
2023/09/12 10:27:18;;;;;;;23.23;20.93;;;;;;;;;;5134868;27;20442;-63
2023/09/12 10:29:47;;;;;;;22.80;20.50;;;;;;;;;;5135118;27;20529;-63
2023/09/12 10:32:15;;;;;;;23.03;20.73;;;;;;;;;;5134599;27;20470;-63
2023/09/12 10:34:47;;;;;;;23.17;20.97;;;;;;;;;;5134986;27;20464;-63
2023/09/12 10:37:16;;;;;;;21.07;18.60;;;;;;;;;;5134721;27;20483;-63
2023/09/12 10:39:44;;;;;;;20.97;19.00;;;;;;;;;;5134893;27;20486;-64
2023/09/12 10:42:12;;;;;;;22.77;18.73;;;;;;;;;;5134501;27;20460;-63
2023/09/12 10:44:40;;;;;;;18.17;16.43;;;;;;;;;;5134965;27;20844;-63
2023/09/12 10:47:07;;;;;;;16.37;14.80;;;;;;;;;;5134684;27;20462;-63
2023/09/12 10:49:35;;;;;;;17.80;16.00;;;;;;;;;;5135264;27;20434;-63
2023/09/12 10:52:04;;;;;;;20.53;18.53;;;;;;;;;;5134294;27;20924;-64
2023/09/12 10:54:38;;;;;;;15.57;14.13;;;;;;;;;;5134945;27;20438;-63
2023/09/12 10:57:05;;;;;;;14.03;12.60;;;;;;;;;;5134182;27;20426;-64
2023/09/12 10:59:35;;;;;;;13.23;11.87;;;;;;;;;;5134539;27;20840;-63
2023/09/12 11:02:17;;;;;;;11.50;10.40;;;;;;;;;;5134364;27;20434;-63
2023/09/12 11:04:44;;;;;;;13.40;12.10;;;;;;;;;;5133971;27;20519;-63
2023/09/12 11:07:30;;;;;;;11.97;10.87;;;;;;;;;;5134108;27;20438;-63
2023/09/12 11:10:12;;;;;;;12.73;11.43;;;;;;;;;;5134874;27;20434;-63
2023/09/12 11:12:40;;;;;;;10.10;9.10;;;;;;;;;;5133439;27;20998;-63
2023/09/12 11:15:08;;;;;;;10.67;9.70;;;;;;;;;;5134321;27;20529;-63
2023/09/12 11:17:39;;;;;;;11.53;9.70;;;;;;;;;;5134108;27;20434;-63
2023/09/12 11:20:10;;;;;;;10.23;9.37;;;;;;;;;;5134581;27;20473;-63
2023/09/12 11:22:39;;;;;;;10.10;9.20;;;;;;;;;;5134122;27;20432;-63
2023/09/12 11:25:06;;;;;;;11.07;9.97;;;;;;;;;;5133813;27;20627;-63
2023/09/12 11:27:45;;;;;;;11.83;10.63;;;;;;;;;;5133434;27;20435;-63
2023/09/12 11:30:15;;;;;;;11.97;10.77;;;;;;;;;;5134090;27;20434;-65
2023/09/12 11:32:45;;;;;;;18.30;12.13;;;;;;;;;;5134080;27;20431;-63
2023/09/12 11:35:13;;;;;;;13.37;11.83;;;;;;;;;;5134040;27;20845;-62
2023/09/12 11:37:40;;;;;;;12.07;10.00;;;;;;;;;;5133616;27;20522;-62
2023/09/12 11:40:18;;;;;;;10.03;9.10;;;;;;;;;;5133897;27;20517;-62
2023/09/12 11:42:47;;;;;;;9.43;8.50;;;;;;;;;;5133101;28;20439;-64
2023/09/12 11:45:16;;;;;;;12.73;10.13;;;;;;;;;;5133850;28;20455;-63
2023/09/12 11:47:43;;;;;;;10.57;9.70;;;;;;;;;;5134038;28;20846;-63
2023/09/12 11:50:10;;;;;;;10.63;9.80;;;;;;;;;;5133527;28;20449;-62
2023/09/12 11:52:38;;;;;;;10.67;9.70;;;;;;;;;;5133367;28;20473;-62
2023/09/12 11:55:06;;;;;;;9.50;8.70;;;;;;;;;;5133637;28;20444;-63
2023/09/12 11:57:34;;;;;;;9.90;8.90;;;;;;;;;;5134183;28;20446;-62
2023/09/12 12:00:08;;;;;;;11.33;10.20;;;;;;;;;;5133417;28;20479;-62
2023/09/12 12:02:36;;;;;;;11.70;10.50;;;;;;;;;;5133441;28;20908;-62
2023/09/12 12:05:04;;;;;;;11.50;9.70;;;;;;;;;;5133237;28;20533;-63
2023/09/12 12:07:32;;;;;;;10.63;9.63;;;;;;;;;;5133240;28;20909;-62
2023/09/12 12:09:59;;;;;;;11.30;9.47;;;;;;;;;;5132964;28;20454;-62
2023/09/12 12:12:26;;;;;;;10.53;9.30;;;;;;;;;;5133693;28;20778;-62
2023/09/12 12:14:53;;;;;;;14.80;9.47;;;;;;;;;;5133273;28;20440;-62
2023/09/12 12:17:20;;;;;;;11.87;9.57;;;;;;;;;;5133454;28;20442;-63
2023/09/12 12:19:49;;;;;;;11.60;9.10;;;;;;;;;;5136317;27;20915;-61
2023/09/12 12:22:16;;;;;;;9.23;8.33;;;;;;;;;;5137369;27;20445;-62
2023/09/12 12:24:47;;;;;;;9.87;8.30;;;;;;;;;;5137418;27;20618;-62
2023/09/12 12:27:16;;;;;;;10.13;9.23;;;;;;;;;;5137198;27;20425;-62
2023/09/12 12:29:43;;;;;;;9.20;8.40;;;;;;;;;;5137599;27;20449;-62
2023/09/12 12:32:11;;;;;;;10.20;9.10;;;;;;;;;;5137397;27;20773;-62
2023/09/12 12:34:39;;;;;;;10.37;9.47;;;;;;;;;;5137584;27;20461;-62
2023/09/12 12:37:07;;;;;;;10.40;9.40;;;;;;;;;;5136937;27;20440;-62
2023/09/12 12:39:34;;;;;;;10.93;9.67;;;;;;;;;;5137186;27;20480;-62
2023/09/12 12:42:03;;;;;;;10.20;9.20;;;;;;;;;;5136995;27;20526;-62
2023/09/12 12:44:40;;;;;;;10.20;9.27;;;;;;;;;;5137103;27;20447;-62
2023/09/12 12:47:08;;;;;;;10.63;9.63;;;;;;;;;;5137070;27;20417;-62
2023/09/12 12:49:38;;;;;;;10.97;10.00;;;;;;;;;;5137073;27;20435;-62
2023/09/12 12:52:06;;;;;;;9.83;8.93;;;;;;;;;;5137163;27;20914;-62
2023/09/12 12:54:34;;;;;;;10.90;9.70;;;;;;;;;;5136913;27;20542;-62
2023/09/12 12:57:02;;;;;;;12.00;10.90;;;;;;;;;;5136952;27;20428;-62
2023/09/12 12:59:34;;;;;;;11.37;10.23;;;;;;;;;;5136440;27;20443;-62
2023/09/12 13:02:02;;;;;;;12.73;10.80;;;;;;;;;;5137153;27;20432;-62
2023/09/12 13:04:29;;;;;;;12.90;11.60;;;;;;;;;;5136414;27;20447;-62
2023/09/12 13:06:57;;;;;;;11.40;10.40;;;;;;;;;;5136792;27;20455;-62
2023/09/12 13:09:24;;;;;;;10.90;9.90;;;;;;;;;;5136983;27;20435;-62
2023/09/12 13:11:52;;;;;;;10.10;9.20;;;;;;;;;;5136457;27;20524;-62
2023/09/12 13:14:20;;;;;;;11.57;9.70;;;;;;;;;;5136214;27;20441;-62
2023/09/12 13:16:47;;;;;;;17.00;15.27;;;;;;;;;;5136681;27;20432;-62
2023/09/12 13:19:14;;;;;;;9.80;8.60;;;;;;;;;;5136381;27;20834;-61
2023/09/12 13:21:42;;;;;;;9.10;8.20;;;;;;;;;;5136331;27;20476;-61
2023/09/12 13:24:09;;;;;;;9.50;8.60;;;;;;;;;;5136278;27;20881;-61
2023/09/12 13:26:36;;;;;;;10.93;9.93;;;;;;;;;;5136623;27;20526;-61
2023/09/12 13:29:05;;;;;;;9.73;8.73;;;;;;;;;;5136194;27;20437;-61
2023/09/12 13:31:32;;;;;;;9.50;8.60;;;;;;;;;;5135277;27;20487;-61
2023/09/12 13:34:00;;;;;;;8.30;7.50;;;;;;;;;;5136618;27;20437;-61
2023/09/12 13:36:27;;;;;;;8.73;7.90;;;;;;;;;;5136120;27;20443;-61
2023/09/12 13:38:54;;;;;;;8.40;7.60;;;;;;;;;;5136134;27;20441;-63
2023/09/12 13:41:22;;;;;;;9.83;8.53;;;;;;;;;;5136120;27;20555;-62
2023/09/12 13:43:49;;;;;;;7.77;7.00;;;;;;;;;;5136410;27;20437;-63
2023/09/12 13:46:17;;;;;;;7.80;7.10;;;;;;;;;;5136009;27;20536;-65
2023/09/12 13:48:45;;;;;;;7.70;7.10;;;;;;;;;;5136058;27;20437;-65
2023/09/12 13:51:12;;;;;;;8.63;7.93;;;;;;;;;;5135871;27;20445;-68
2023/09/12 13:53:40;;;;;;;8.67;7.90;;;;;;;;;;5136017;27;20847;-64
2023/09/12 13:56:08;;;;;;;8.80;8.00;;;;;;;;;;5135493;27;20941;-63
2023/09/12 13:58:35;;;;;;;7.60;6.90;;;;;;;;;;5135813;27;20437;-63
2023/09/12 14:01:03;;;;;;;9.80;7.60;;;;;;;;;;5135383;27;20568;-64
2023/09/12 14:03:31;;;;;;;7.53;6.87;;;;;;;;;;5135420;27;20451;-63
2023/09/12 14:05:59;;;;;;;7.97;7.27;;;;;;;;;;5135443;27;20437;-63
2023/09/12 14:08:26;;;;;;;9.70;6.40;;;;;;;;;;5135771;27;20430;-63
2023/09/12 14:10:53;;;;;;;7.00;6.40;;;;;;;;;;5134205;27;20571;-63
2023/09/12 14:13:20;;;;;;;14.43;12.10;;;;;;;;;;5135498;27;20433;-63
2023/09/12 14:15:49;;;;;;;7.17;6.07;;;;;;;;;;5134740;27;20532;-63
2023/09/12 14:18:16;;;;;;;7.53;6.67;;;;;;;;;;5134939;27;20441;-63
2023/09/12 14:20:46;;;;;;;7.77;6.70;;;;;;;;;;5135103;27;20512;-63
2023/09/12 14:23:13;;;;;;;7.50;6.90;;;;;;;;;;5135333;27;20442;-63
2023/09/12 14:25:40;;;;;;;6.83;6.23;;;;;;;;;;5135294;27;20550;-63